sensor_id;sensor_type;location;lat;lon;timestamp;pressure;altitude;pressure_sealevel;temperature
69552;BMP280;63774;45.292;11.784;2022-10-01T00:02:19;101699.27;;;21.79
69552;BMP280;63774;45.292;11.784;2022-10-01T00:04:45;101700.73;;;21.78
69552;BMP280;63774;45.292;11.784;2022-10-01T00:07:12;101702.78;;;21.77
69552;BMP280;63774;45.292;11.784;2022-10-01T00:09:39;101703.88;;;21.78
69552;BMP280;63774;45.292;11.784;2022-10-01T00:12:05;101705.80;;;21.77
69552;BMP280;63774;45.292;11.784;2022-10-01T00:14:31;101706.97;;;21.78
69552;BMP280;63774;45.292;11.784;2022-10-01T00:16:57;101710.75;;;21.77
69552;BMP280;63774;45.292;11.784;2022-10-01T00:19:22;101709.79;;;21.76
69552;BMP280;63774;45.292;11.784;2022-10-01T00:21:48;101710.54;;;21.76
69552;BMP280;63774;45.292;11.784;2022-10-01T00:24:16;101707.61;;;21.76
69552;BMP280;63774;45.292;11.784;2022-10-01T00:26:45;101706.15;;;21.76
69552;BMP280;63774;45.292;11.784;2022-10-01T00:29:13;101707.27;;;21.77
69552;BMP280;63774;45.292;11.784;2022-10-01T00:31:40;101709.64;;;21.78
69552;BMP280;63774;45.292;11.784;2022-10-01T00:34:06;101704.14;;;21.75
69552;BMP280;63774;45.292;11.784;2022-10-01T00:36:34;101698.80;;;21.75
69552;BMP280;63774;45.292;11.784;2022-10-01T00:39:00;101697.52;;;21.76
69552;BMP280;63774;45.292;11.784;2022-10-01T00:41:31;101697.64;;;21.75
69552;BMP280;63774;45.292;11.784;2022-10-01T00:44:00;101694.84;;;21.74
69552;BMP280;63774;45.292;11.784;2022-10-01T00:46:46;101698.63;;;21.76
69552;BMP280;63774;45.292;11.784;2022-10-01T00:49:16;101704.05;;;21.76
69552;BMP280;63774;45.292;11.784;2022-10-01T00:51:47;101712.30;;;21.76
69552;BMP280;63774;45.292;11.784;2022-10-01T00:54:21;101716.98;;;21.77
69552;BMP280;63774;45.292;11.784;2022-10-01T00:56:50;101718.79;;;21.76
69552;BMP280;63774;45.292;11.784;2022-10-01T00:59:17;101716.44;;;21.77
69552;BMP280;63774;45.292;11.784;2022-10-01T01:01:43;101713.08;;;21.76
69552;BMP280;63774;45.292;11.784;2022-10-01T01:04:09;101710.27;;;21.74
69552;BMP280;63774;45.292;11.784;2022-10-01T01:06:46;101712.44;;;21.74
69552;BMP280;63774;45.292;11.784;2022-10-01T01:09:19;101711.58;;;21.70
69552;BMP280;63774;45.292;11.784;2022-10-01T01:17:59;101715.33;;;21.71
69552;BMP280;63774;45.292;11.784;2022-10-01T01:28:49;101699.23;;;21.71
69552;BMP280;63774;45.292;11.784;2022-10-01T01:31:31;101703.77;;;21.70
69552;BMP280;63774;45.292;11.784;2022-10-01T01:34:02;101712.34;;;21.70
69552;BMP280;63774;45.292;11.784;2022-10-01T01:36:32;101714.22;;;21.69
69552;BMP280;63774;45.292;11.784;2022-10-01T01:39:03;101717.15;;;21.70
69552;BMP280;63774;45.292;11.784;2022-10-01T01:41:37;101724.41;;;21.70
69552;BMP280;63774;45.292;11.784;2022-10-01T01:44:09;101729.37;;;21.69
69552;BMP280;63774;45.292;11.784;2022-10-01T01:46:40;101731.17;;;21.66
69552;BMP280;63774;45.292;11.784;2022-10-01T01:49:17;101730.73;;;21.67
69552;BMP280;63774;45.292;11.784;2022-10-01T01:52:33;101729.48;;;21.66
69552;BMP280;63774;45.292;11.784;2022-10-01T01:54:44;101733.55;;;21.66
69552;BMP280;63774;45.292;11.784;2022-10-01T01:57:17;101736.80;;;21.63
69552;BMP280;63774;45.292;11.784;2022-10-01T01:59:44;101739.02;;;21.62
69552;BMP280;63774;45.292;11.784;2022-10-01T02:02:17;101745.18;;;21.64
69552;BMP280;63774;45.292;11.784;2022-10-01T02:04:50;101742.06;;;21.63
69552;BMP280;63774;45.292;11.784;2022-10-01T02:08:03;101740.56;;;21.63
69552;BMP280;63774;45.292;11.784;2022-10-01T02:13:34;101731.30;;;21.63
69552;BMP280;63774;45.292;11.784;2022-10-01T02:22:18;101736.06;;;21.58
69552;BMP280;63774;45.292;11.784;2022-10-01T02:24:53;101734.90;;;21.58
69552;BMP280;63774;45.292;11.784;2022-10-01T02:28:05;101738.64;;;21.61
69552;BMP280;63774;45.292;11.784;2022-10-01T02:30:32;101736.86;;;21.57
69552;BMP280;63774;45.292;11.784;2022-10-01T02:33:04;101740.60;;;21.57
69552;BMP280;63774;45.292;11.784;2022-10-01T02:35:41;101742.36;;;21.59
69552;BMP280;63774;45.292;11.784;2022-10-01T02:38:18;101746.30;;;21.59
69552;BMP280;63774;45.292;11.784;2022-10-01T02:40:46;101746.02;;;21.60
69552;BMP280;63774;45.292;11.784;2022-10-01T02:43:17;101743.09;;;21.59
69552;BMP280;63774;45.292;11.784;2022-10-01T02:45:50;101750.27;;;21.60
69552;BMP280;63774;45.292;11.784;2022-10-01T02:48:22;101753.84;;;21.61
69552;BMP280;63774;45.292;11.784;2022-10-01T02:51:04;101754.15;;;21.60
69552;BMP280;63774;45.292;11.784;2022-10-01T02:53:46;101756.66;;;21.58
69552;BMP280;63774;45.292;11.784;2022-10-01T02:56:13;101760.52;;;21.60
69552;BMP280;63774;45.292;11.784;2022-10-01T02:58:59;101754.16;;;21.58
69552;BMP280;63774;45.292;11.784;2022-10-01T03:01:25;101745.97;;;21.59
69552;BMP280;63774;45.292;11.784;2022-10-01T03:03:56;101744.98;;;21.60
69552;BMP280;63774;45.292;11.784;2022-10-01T03:06:31;101743.92;;;21.61
69552;BMP280;63774;45.292;11.784;2022-10-01T03:08:59;101740.84;;;21.61
69552;BMP280;63774;45.292;11.784;2022-10-01T03:11:35;101742.23;;;21.62
69552;BMP280;63774;45.292;11.784;2022-10-01T03:14:04;101739.87;;;21.62
69552;BMP280;63774;45.292;11.784;2022-10-01T03:16:41;101738.69;;;21.61
69552;BMP280;63774;45.292;11.784;2022-10-01T03:19:12;101738.77;;;21.61
69552;BMP280;63774;45.292;11.784;2022-10-01T03:21:50;101736.77;;;21.59
69552;BMP280;63774;45.292;11.784;2022-10-01T03:24:23;101740.48;;;21.58
69552;BMP280;63774;45.292;11.784;2022-10-01T03:26:48;101740.80;;;21.59
69552;BMP280;63774;45.292;11.784;2022-10-01T03:29:22;101742.22;;;21.59
69552;BMP280;63774;45.292;11.784;2022-10-01T03:31:49;101745.25;;;21.58
69552;BMP280;63774;45.292;11.784;2022-10-01T03:34:21;101747.94;;;21.59
69552;BMP280;63774;45.292;11.784;2022-10-01T03:36:49;101746.67;;;21.57
69552;BMP280;63774;45.292;11.784;2022-10-01T03:39:39;101745.27;;;21.58
69552;BMP280;63774;45.292;11.784;2022-10-01T03:42:07;101744.23;;;21.58
69552;BMP280;63774;45.292;11.784;2022-10-01T03:44:38;101744.23;;;21.57
69552;BMP280;63774;45.292;11.784;2022-10-01T03:47:06;101741.38;;;21.57
69552;BMP280;63774;45.292;11.784;2022-10-01T03:49:41;101745.72;;;21.57
69552;BMP280;63774;45.292;11.784;2022-10-01T03:54:56;101745.05;;;21.56
69552;BMP280;63774;45.292;11.784;2022-10-01T03:57:45;101739.84;;;21.55
69552;BMP280;63774;45.292;11.784;2022-10-01T04:00:21;101751.27;;;21.55
69552;BMP280;63774;45.292;11.784;2022-10-01T04:16:26;101755.55;;;21.48
69552;BMP280;63774;45.292;11.784;2022-10-01T04:19:11;101757.09;;;21.47
69552;BMP280;63774;45.292;11.784;2022-10-01T04:21:42;101757.42;;;21.50
69552;BMP280;63774;45.292;11.784;2022-10-01T04:24:24;101758.00;;;21.49
69552;BMP280;63774;45.292;11.784;2022-10-01T04:26:50;101759.73;;;21.47
69552;BMP280;63774;45.292;11.784;2022-10-01T04:29:36;101760.30;;;21.46
69552;BMP280;63774;45.292;11.784;2022-10-01T04:32:25;101760.53;;;21.47
69552;BMP280;63774;45.292;11.784;2022-10-01T04:35:01;101759.88;;;21.45
69552;BMP280;63774;45.292;11.784;2022-10-01T04:40:41;101772.33;;;21.45
69552;BMP280;63774;45.292;11.784;2022-10-01T04:43:07;101771.13;;;21.43
69552;BMP280;63774;45.292;11.784;2022-10-01T04:45:38;101774.48;;;21.43
69552;BMP280;63774;45.292;11.784;2022-10-01T04:48:06;101779.45;;;21.43
69552;BMP280;63774;45.292;11.784;2022-10-01T04:50:42;101782.25;;;21.44
69552;BMP280;63774;45.292;11.784;2022-10-01T04:53:10;101784.83;;;21.43
69552;BMP280;63774;45.292;11.784;2022-10-01T04:55:36;101788.29;;;21.43
69552;BMP280;63774;45.292;11.784;2022-10-01T04:58:04;101790.70;;;21.42
69552;BMP280;63774;45.292;11.784;2022-10-01T05:00:42;101797.51;;;21.43
69552;BMP280;63774;45.292;11.784;2022-10-01T05:03:28;101803.60;;;21.41
69552;BMP280;63774;45.292;11.784;2022-10-01T05:06:23;101804.13;;;21.41
69552;BMP280;63774;45.292;11.784;2022-10-01T05:08:57;101798.94;;;21.42
69552;BMP280;63774;45.292;11.784;2022-10-01T05:11:32;101797.61;;;21.45
69552;BMP280;63774;45.292;11.784;2022-10-01T05:13:59;101793.89;;;21.47
69552;BMP280;63774;45.292;11.784;2022-10-01T05:16:25;101793.96;;;21.50
69552;BMP280;63774;45.292;11.784;2022-10-01T05:18:54;101798.87;;;21.53
69552;BMP280;63774;45.292;11.784;2022-10-01T05:21:27;101795.03;;;21.51
69552;BMP280;63774;45.292;11.784;2022-10-01T05:23:53;101797.59;;;21.53
69552;BMP280;63774;45.292;11.784;2022-10-01T05:26:27;101791.55;;;21.50
69552;BMP280;63774;45.292;11.784;2022-10-01T05:28:56;101797.02;;;21.50
69552;BMP280;63774;45.292;11.784;2022-10-01T05:31:25;101792.50;;;21.51
69552;BMP280;63774;45.292;11.784;2022-10-01T05:33:54;101791.56;;;21.51
69552;BMP280;63774;45.292;11.784;2022-10-01T05:36:28;101790.56;;;21.52
69552;BMP280;63774;45.292;11.784;2022-10-01T05:38:54;101786.29;;;21.49
69552;BMP280;63774;45.292;11.784;2022-10-01T05:41:20;101785.70;;;21.48
69552;BMP280;63774;45.292;11.784;2022-10-01T05:43:56;101791.81;;;21.48
69552;BMP280;63774;45.292;11.784;2022-10-01T05:46:31;101795.23;;;21.47
69552;BMP280;63774;45.292;11.784;2022-10-01T05:49:00;101796.87;;;21.48
69552;BMP280;63774;45.292;11.784;2022-10-01T05:51:28;101798.97;;;21.50
69552;BMP280;63774;45.292;11.784;2022-10-01T05:53:55;101803.60;;;21.52
69552;BMP280;63774;45.292;11.784;2022-10-01T05:56:38;101805.36;;;21.50
69552;BMP280;63774;45.292;11.784;2022-10-01T05:59:06;101808.11;;;21.51
69552;BMP280;63774;45.292;11.784;2022-10-01T06:01:35;101812.70;;;21.53
69552;BMP280;63774;45.292;11.784;2022-10-01T06:04:10;101817.73;;;21.53
69552;BMP280;63774;45.292;11.784;2022-10-01T06:06:39;101825.19;;;21.53
69552;BMP280;63774;45.292;11.784;2022-10-01T06:09:08;101827.15;;;21.55
69552;BMP280;63774;45.292;11.784;2022-10-01T06:11:37;101825.86;;;21.55
69552;BMP280;63774;45.292;11.784;2022-10-01T06:14:04;101826.58;;;21.56
69552;BMP280;63774;45.292;11.784;2022-10-01T06:16:41;101831.08;;;21.56
69552;BMP280;63774;45.292;11.784;2022-10-01T06:19:13;101834.21;;;21.54
69552;BMP280;63774;45.292;11.784;2022-10-01T06:21:50;101837.38;;;21.55
69552;BMP280;63774;45.292;11.784;2022-10-01T06:24:19;101838.01;;;21.52
69552;BMP280;63774;45.292;11.784;2022-10-01T06:26:44;101845.18;;;21.52
69552;BMP280;63774;45.292;11.784;2022-10-01T06:29:16;101845.02;;;21.51
69552;BMP280;63774;45.292;11.784;2022-10-01T06:31:42;101850.44;;;21.51
69552;BMP280;63774;45.292;11.784;2022-10-01T06:34:16;101849.88;;;21.53
69552;BMP280;63774;45.292;11.784;2022-10-01T06:36:47;101849.33;;;21.51
69552;BMP280;63774;45.292;11.784;2022-10-01T06:39:17;101846.98;;;21.53
69552;BMP280;63774;45.292;11.784;2022-10-01T06:41:46;101848.95;;;21.57
69552;BMP280;63774;45.292;11.784;2022-10-01T06:44:25;101851.22;;;21.62
69552;BMP280;63774;45.292;11.784;2022-10-01T06:46:53;101854.02;;;21.65
69552;BMP280;63774;45.292;11.784;2022-10-01T06:49:30;101856.56;;;21.66
69552;BMP280;63774;45.292;11.784;2022-10-01T06:52:04;101862.50;;;21.71
69552;BMP280;63774;45.292;11.784;2022-10-01T06:54:57;101863.39;;;21.73
69552;BMP280;63774;45.292;11.784;2022-10-01T06:57:33;101862.10;;;21.74
69552;BMP280;63774;45.292;11.784;2022-10-01T06:59:59;101865.09;;;21.76
69552;BMP280;63774;45.292;11.784;2022-10-01T07:02:26;101867.67;;;21.78
69552;BMP280;63774;45.292;11.784;2022-10-01T07:04:59;101868.23;;;21.80
69552;BMP280;63774;45.292;11.784;2022-10-01T07:07:44;101868.77;;;21.82
69552;BMP280;63774;45.292;11.784;2022-10-01T07:10:23;101866.23;;;21.82
69552;BMP280;63774;45.292;11.784;2022-10-01T07:12:52;101864.20;;;21.83
69552;BMP280;63774;45.292;11.784;2022-10-01T07:15:21;101868.09;;;21.86
69552;BMP280;63774;45.292;11.784;2022-10-01T07:18:07;101867.92;;;21.83
69552;BMP280;63774;45.292;11.784;2022-10-01T07:20:55;101873.99;;;21.86
69552;BMP280;63774;45.292;11.784;2022-10-01T07:23:24;101875.60;;;21.86
69552;BMP280;63774;45.292;11.784;2022-10-01T07:25:59;101880.80;;;21.88
69552;BMP280;63774;45.292;11.784;2022-10-01T07:29:06;101887.53;;;21.89
69552;BMP280;63774;45.292;11.784;2022-10-01T07:31:31;101889.51;;;21.88
69552;BMP280;63774;45.292;11.784;2022-10-01T07:33:59;101892.09;;;21.91
69552;BMP280;63774;45.292;11.784;2022-10-01T07:36:44;101891.54;;;21.91
69552;BMP280;63774;45.292;11.784;2022-10-01T07:39:11;101887.98;;;21.91
69552;BMP280;63774;45.292;11.784;2022-10-01T07:41:49;101891.89;;;21.92
69552;BMP280;63774;45.292;11.784;2022-10-01T07:44:19;101890.98;;;21.92
69552;BMP280;63774;45.292;11.784;2022-10-01T07:46:56;101888.42;;;21.94
69552;BMP280;63774;45.292;11.784;2022-10-01T07:49:31;101886.23;;;21.94
69552;BMP280;63774;45.292;11.784;2022-10-01T07:52:00;101885.59;;;21.94
69552;BMP280;63774;45.292;11.784;2022-10-01T07:54:30;101880.25;;;21.94
69552;BMP280;63774;45.292;11.784;2022-10-01T07:59:32;101886.80;;;21.96
69552;BMP280;63774;45.292;11.784;2022-10-01T08:01:58;101885.98;;;21.95
69552;BMP280;63774;45.292;11.784;2022-10-01T08:07:38;101897.91;;;21.98
69552;BMP280;63774;45.292;11.784;2022-10-01T08:10:04;101893.93;;;21.97
69552;BMP280;63774;45.292;11.784;2022-10-01T08:12:30;101894.10;;;21.99
69552;BMP280;63774;45.292;11.784;2022-10-01T08:15:05;101892.02;;;21.99
69552;BMP280;63774;45.292;11.784;2022-10-01T08:17:42;101890.79;;;21.98
69552;BMP280;63774;45.292;11.784;2022-10-01T08:20:10;101890.34;;;21.99
69552;BMP280;63774;45.292;11.784;2022-10-01T08:22:43;101892.86;;;21.99
69552;BMP280;63774;45.292;11.784;2022-10-01T08:25:09;101897.77;;;22.00
69552;BMP280;63774;45.292;11.784;2022-10-01T08:27:35;101899.84;;;22.00
69552;BMP280;63774;45.292;11.784;2022-10-01T08:30:01;101904.27;;;21.99
69552;BMP280;63774;45.292;11.784;2022-10-01T08:32:38;101905.90;;;21.99
69552;BMP280;63774;45.292;11.784;2022-10-01T08:35:04;101901.34;;;22.00
69552;BMP280;63774;45.292;11.784;2022-10-01T08:37:50;101899.95;;;22.00
69552;BMP280;63774;45.292;11.784;2022-10-01T08:40:17;101899.33;;;22.00
69552;BMP280;63774;45.292;11.784;2022-10-01T08:42:58;101902.23;;;22.00
69552;BMP280;63774;45.292;11.784;2022-10-01T08:48:28;101907.06;;;22.00
69552;BMP280;63774;45.292;11.784;2022-10-01T08:51:07;101911.32;;;22.00
69552;BMP280;63774;45.292;11.784;2022-10-01T08:53:40;101912.16;;;22.01
69552;BMP280;63774;45.292;11.784;2022-10-01T08:56:33;101910.25;;;22.00
69552;BMP280;63774;45.292;11.784;2022-10-01T08:59:13;101912.50;;;22.01
69552;BMP280;63774;45.292;11.784;2022-10-01T09:01:39;101907.77;;;22.02
69552;BMP280;63774;45.292;11.784;2022-10-01T09:04:05;101900.29;;;22.01
69552;BMP280;63774;45.292;11.784;2022-10-01T09:06:30;101905.72;;;22.01
69552;BMP280;63774;45.292;11.784;2022-10-01T09:09:46;101907.53;;;22.02
69552;BMP280;63774;45.292;11.784;2022-10-01T09:15:15;101911.20;;;22.05
69552;BMP280;63774;45.292;11.784;2022-10-01T09:20:59;101910.48;;;22.05
69552;BMP280;63774;45.292;11.784;2022-10-01T09:23:31;101909.24;;;22.07
69552;BMP280;63774;45.292;11.784;2022-10-01T09:26:12;101906.59;;;22.07
69552;BMP280;63774;45.292;11.784;2022-10-01T09:28:48;101905.24;;;22.06
69552;BMP280;63774;45.292;11.784;2022-10-01T09:31:26;101910.23;;;22.07
69552;BMP280;63774;45.292;11.784;2022-10-01T09:34:02;101911.09;;;22.11
69552;BMP280;63774;45.292;11.784;2022-10-01T09:40:04;101902.63;;;22.10
69552;BMP280;63774;45.292;11.784;2022-10-01T09:42:28;101902.34;;;22.12
69552;BMP280;63774;45.292;11.784;2022-10-01T09:44:58;101911.35;;;22.12
69552;BMP280;63774;45.292;11.784;2022-10-01T09:47:24;101913.32;;;22.11
69552;BMP280;63774;45.292;11.784;2022-10-01T09:49:50;101915.25;;;22.13
69552;BMP280;63774;45.292;11.784;2022-10-01T09:57:45;101911.08;;;22.14
69552;BMP280;63774;45.292;11.784;2022-10-01T10:00:22;101908.89;;;22.16
69552;BMP280;63774;45.292;11.784;2022-10-01T10:02:53;101906.79;;;22.15
69552;BMP280;63774;45.292;11.784;2022-10-01T10:05:23;101904.16;;;22.17
69552;BMP280;63774;45.292;11.784;2022-10-01T10:08:02;101898.02;;;22.17
69552;BMP280;63774;45.292;11.784;2022-10-01T10:10:30;101894.35;;;22.18
69552;BMP280;63774;45.292;11.784;2022-10-01T10:13:18;101897.99;;;22.20
69552;BMP280;63774;45.292;11.784;2022-10-01T10:15:56;101898.64;;;22.19
69552;BMP280;63774;45.292;11.784;2022-10-01T10:21:34;101896.43;;;22.20
69552;BMP280;63774;45.292;11.784;2022-10-01T10:24:03;101892.02;;;22.20
69552;BMP280;63774;45.292;11.784;2022-10-01T10:26:38;101890.15;;;22.20
69552;BMP280;63774;45.292;11.784;2022-10-01T10:29:07;101889.23;;;22.21
69552;BMP280;63774;45.292;11.784;2022-10-01T10:31:41;101887.57;;;22.20
69552;BMP280;63774;45.292;11.784;2022-10-01T10:34:29;101882.27;;;22.20
69552;BMP280;63774;45.292;11.784;2022-10-01T10:36:58;101881.16;;;22.21
69552;BMP280;63774;45.292;11.784;2022-10-01T10:39:27;101879.02;;;22.22
69552;BMP280;63774;45.292;11.784;2022-10-01T10:42:00;101880.41;;;22.24
69552;BMP280;63774;45.292;11.784;2022-10-01T10:44:30;101878.11;;;22.23
69552;BMP280;63774;45.292;11.784;2022-10-01T10:47:07;101878.60;;;22.24
69552;BMP280;63774;45.292;11.784;2022-10-01T10:49:55;101869.85;;;22.23
69552;BMP280;63774;45.292;11.784;2022-10-01T10:52:34;101868.95;;;22.24
69552;BMP280;63774;45.292;11.784;2022-10-01T10:55:26;101863.30;;;22.25
69552;BMP280;63774;45.292;11.784;2022-10-01T10:57:54;101855.80;;;22.23
69552;BMP280;63774;45.292;11.784;2022-10-01T11:00:22;101851.17;;;22.23
69552;BMP280;63774;45.292;11.784;2022-10-01T11:03:00;101851.96;;;22.25
69552;BMP280;63774;45.292;11.784;2022-10-01T11:05:29;101853.63;;;22.25
69552;BMP280;63774;45.292;11.784;2022-10-01T11:08:12;101845.68;;;22.22
69552;BMP280;63774;45.292;11.784;2022-10-01T11:14:22;101847.84;;;22.25
69552;BMP280;63774;45.292;11.784;2022-10-01T11:20:10;101831.99;;;22.25
69552;BMP280;63774;45.292;11.784;2022-10-01T11:32:11;101823.32;;;22.26
69552;BMP280;63774;45.292;11.784;2022-10-01T11:35:21;101822.08;;;22.28
69552;BMP280;63774;45.292;11.784;2022-10-01T11:40:41;101824.48;;;22.29
69552;BMP280;63774;45.292;11.784;2022-10-01T11:43:41;101830.45;;;22.27
69552;BMP280;63774;45.292;11.784;2022-10-01T11:46:15;101840.02;;;22.29
69552;BMP280;63774;45.292;11.784;2022-10-01T11:49:21;101840.65;;;22.30
69552;BMP280;63774;45.292;11.784;2022-10-01T11:54:35;101833.91;;;22.30
69552;BMP280;63774;45.292;11.784;2022-10-01T11:57:04;101833.12;;;22.29
69552;BMP280;63774;45.292;11.784;2022-10-01T12:00:20;101834.16;;;22.31
69552;BMP280;63774;45.292;11.784;2022-10-01T12:02:58;101829.38;;;22.30
69552;BMP280;63774;45.292;11.784;2022-10-01T12:05:46;101822.11;;;22.30
69552;BMP280;63774;45.292;11.784;2022-10-01T12:08:29;101817.80;;;22.31
69552;BMP280;63774;45.292;11.784;2022-10-01T12:14:51;101825.20;;;22.33
69552;BMP280;63774;45.292;11.784;2022-10-01T12:20:52;101812.61;;;22.31
69552;BMP280;63774;45.292;11.784;2022-10-01T12:23:27;101809.89;;;22.32
69552;BMP280;63774;45.292;11.784;2022-10-01T12:42:10;101788.22;;;22.37
69552;BMP280;63774;45.292;11.784;2022-10-01T12:47:45;101784.07;;;22.37
69552;BMP280;63774;45.292;11.784;2022-10-01T12:50:56;101784.10;;;22.36
69552;BMP280;63774;45.292;11.784;2022-10-01T12:56:52;101778.98;;;22.39
69552;BMP280;63774;45.292;11.784;2022-10-01T13:00:07;101780.98;;;22.38
69552;BMP280;63774;45.292;11.784;2022-10-01T13:16:15;101778.71;;;22.40
69552;BMP280;63774;45.292;11.784;2022-10-01T13:19:33;101778.05;;;22.40
69552;BMP280;63774;45.292;11.784;2022-10-01T13:25:21;101771.85;;;22.39
69552;BMP280;63774;45.292;11.784;2022-10-01T13:30:59;101769.79;;;22.41
69552;BMP280;63774;45.292;11.784;2022-10-01T13:33:32;101769.13;;;22.38
69552;BMP280;63774;45.292;11.784;2022-10-01T13:36:07;101771.45;;;22.39
69552;BMP280;63774;45.292;11.784;2022-10-01T13:41:30;101760.08;;;22.42
69552;BMP280;63774;45.292;11.784;2022-10-01T13:44:03;101758.58;;;22.41
69552;BMP280;63774;45.292;11.784;2022-10-01T13:46:51;101749.73;;;22.40
69552;BMP280;63774;45.292;11.784;2022-10-01T13:49:24;101753.02;;;22.41
69552;BMP280;63774;45.292;11.784;2022-10-01T13:51:52;101754.66;;;22.41
69552;BMP280;63774;45.292;11.784;2022-10-01T13:54:45;101748.31;;;22.41
69552;BMP280;63774;45.292;11.784;2022-10-01T13:57:28;101746.07;;;22.41
69552;BMP280;63774;45.292;11.784;2022-10-01T14:02:55;101747.16;;;22.41
69552;BMP280;63774;45.292;11.784;2022-10-01T14:05:30;101754.94;;;22.40
69552;BMP280;63774;45.292;11.784;2022-10-01T14:08:09;101752.41;;;22.42
69552;BMP280;63774;45.292;11.784;2022-10-01T14:10:51;101753.64;;;22.43
69552;BMP280;63774;45.292;11.784;2022-10-01T14:13:48;101755.69;;;22.43
69552;BMP280;63774;45.292;11.784;2022-10-01T14:16:50;101752.30;;;22.44
69552;BMP280;63774;45.292;11.784;2022-10-01T14:19:21;101743.39;;;22.46
69552;BMP280;63774;45.292;11.784;2022-10-01T14:22:18;101741.81;;;22.46
69552;BMP280;63774;45.292;11.784;2022-10-01T14:28:34;101728.00;;;22.44
69552;BMP280;63774;45.292;11.784;2022-10-01T14:31:28;101721.59;;;22.44
69552;BMP280;63774;45.292;11.784;2022-10-01T14:36:52;101714.05;;;22.47
69552;BMP280;63774;45.292;11.784;2022-10-01T14:39:33;101705.00;;;22.45
69552;BMP280;63774;45.292;11.784;2022-10-01T14:42:09;101700.70;;;22.45
69552;BMP280;63774;45.292;11.784;2022-10-01T14:44:46;101696.50;;;22.43
69552;BMP280;63774;45.292;11.784;2022-10-01T14:47:35;101696.48;;;22.47
69552;BMP280;63774;45.292;11.784;2022-10-01T14:50:10;101690.10;;;22.48
69552;BMP280;63774;45.292;11.784;2022-10-01T14:52:52;101694.73;;;22.46
69552;BMP280;63774;45.292;11.784;2022-10-01T14:55:31;101689.86;;;22.50
69552;BMP280;63774;45.292;11.784;2022-10-01T14:58:17;101687.17;;;22.48
69552;BMP280;63774;45.292;11.784;2022-10-01T15:00:55;101692.50;;;22.47
69552;BMP280;63774;45.292;11.784;2022-10-01T15:03:38;101692.78;;;22.47
69552;BMP280;63774;45.292;11.784;2022-10-01T15:06:14;101692.30;;;22.47
69552;BMP280;63774;45.292;11.784;2022-10-01T15:11:39;101692.70;;;22.47
69552;BMP280;63774;45.292;11.784;2022-10-01T15:14:25;101690.11;;;22.46
69552;BMP280;63774;45.292;11.784;2022-10-01T15:17:17;101691.66;;;22.48
69552;BMP280;63774;45.292;11.784;2022-10-01T15:22:37;101688.25;;;22.48
69552;BMP280;63774;45.292;11.784;2022-10-01T15:25:17;101688.39;;;22.48
69552;BMP280;63774;45.292;11.784;2022-10-01T15:27:54;101685.92;;;22.50
69552;BMP280;63774;45.292;11.784;2022-10-01T15:30:29;101687.74;;;22.48
69552;BMP280;63774;45.292;11.784;2022-10-01T15:32:58;101688.92;;;22.47
69552;BMP280;63774;45.292;11.784;2022-10-01T15:35:30;101692.61;;;22.49
69552;BMP280;63774;45.292;11.784;2022-10-01T15:38:08;101697.23;;;22.48
69552;BMP280;63774;45.292;11.784;2022-10-01T15:40:52;101698.08;;;22.47
69552;BMP280;63774;45.292;11.784;2022-10-01T15:43:35;101706.26;;;22.49
69552;BMP280;63774;45.292;11.784;2022-10-01T15:48:36;101692.04;;;22.50
69552;BMP280;63774;45.292;11.784;2022-10-01T15:51:21;101692.36;;;22.49
69552;BMP280;63774;45.292;11.784;2022-10-01T15:54:07;101698.52;;;22.50
69552;BMP280;63774;45.292;11.784;2022-10-01T15:56:45;101699.55;;;22.52
69552;BMP280;63774;45.292;11.784;2022-10-01T15:59:19;101700.77;;;22.50
69552;BMP280;63774;45.292;11.784;2022-10-01T16:04:42;101701.61;;;22.52
69552;BMP280;63774;45.292;11.784;2022-10-01T16:20:58;101705.79;;;22.53
69552;BMP280;63774;45.292;11.784;2022-10-01T16:23:46;101701.19;;;22.52
69552;BMP280;63774;45.292;11.784;2022-10-01T16:26:36;101704.08;;;22.51
69552;BMP280;63774;45.292;11.784;2022-10-01T16:29:49;101711.61;;;22.51
69552;BMP280;63774;45.292;11.784;2022-10-01T16:32:50;101708.96;;;22.51
69552;BMP280;63774;45.292;11.784;2022-10-01T16:35:46;101704.88;;;22.49
69552;BMP280;63774;45.292;11.784;2022-10-01T16:38:32;101721.48;;;22.51
69552;BMP280;63774;45.292;11.784;2022-10-01T16:41:00;101718.21;;;22.51
69552;BMP280;63774;45.292;11.784;2022-10-01T16:46:40;101718.13;;;22.51
69552;BMP280;63774;45.292;11.784;2022-10-01T16:49:15;101717.52;;;22.51
69552;BMP280;63774;45.292;11.784;2022-10-01T16:52:01;101706.56;;;22.51
69552;BMP280;63774;45.292;11.784;2022-10-01T16:54:28;101706.11;;;22.50
69552;BMP280;63774;45.292;11.784;2022-10-01T16:56:59;101711.63;;;22.51
69552;BMP280;63774;45.292;11.784;2022-10-01T17:02:19;101733.92;;;22.51
69552;BMP280;63774;45.292;11.784;2022-10-01T17:05:07;101742.15;;;22.50
69552;BMP280;63774;45.292;11.784;2022-10-01T17:07:40;101739.15;;;22.49
69552;BMP280;63774;45.292;11.784;2022-10-01T17:10:19;101745.28;;;22.49
69552;BMP280;63774;45.292;11.784;2022-10-01T17:12:49;101756.98;;;22.50
69552;BMP280;63774;45.292;11.784;2022-10-01T17:15:26;101753.33;;;22.50
69552;BMP280;63774;45.292;11.784;2022-10-01T17:17:53;101745.73;;;22.49
69552;BMP280;63774;45.292;11.784;2022-10-01T17:20:20;101740.11;;;22.48
69552;BMP280;63774;45.292;11.784;2022-10-01T17:22:49;101736.78;;;22.48
69552;BMP280;63774;45.292;11.784;2022-10-01T17:25:39;101724.23;;;22.47
69552;BMP280;63774;45.292;11.784;2022-10-01T17:28:07;101743.08;;;22.49
69552;BMP280;63774;45.292;11.784;2022-10-01T17:30:33;101754.85;;;22.51
69552;BMP280;63774;45.292;11.784;2022-10-01T17:33:01;101762.79;;;22.51
69552;BMP280;63774;45.292;11.784;2022-10-01T17:35:30;101765.54;;;22.52